createdAt,value
2022-09-15T00:01:50.050Z,99244.38
2022-09-15T00:04:17.079Z,99246.58
2022-09-15T00:06:43.716Z,99243.31
2022-09-15T00:09:10.345Z,99242.55
2022-09-15T00:11:37.308Z,99239.00
2022-09-15T00:14:05.014Z,99238.30
2022-09-15T00:16:32.076Z,99236.74
2022-09-15T00:18:59.273Z,99233.97
2022-09-15T00:21:29.127Z,99233.59
2022-09-15T00:23:55.861Z,99229.14
2022-09-15T00:26:24.073Z,99226.64
2022-09-15T00:28:51.103Z,99228.40
2022-09-15T00:31:19.481Z,99231.85
2022-09-15T00:33:47.660Z,99234.20
2022-09-15T00:36:14.607Z,99233.98
2022-09-15T00:38:41.471Z,99234.67
2022-09-15T00:41:09.716Z,99235.98
2022-09-15T00:43:52.440Z,99240.44
2022-09-15T00:46:25.393Z,99236.66
2022-09-15T00:48:57.112Z,99234.60
2022-09-15T00:51:29.587Z,99233.13
2022-09-15T00:53:57.267Z,99234.08
2022-09-15T00:56:23.966Z,99233.69
2022-09-15T00:58:59.454Z,99233.21
2022-09-15T01:01:26.547Z,99231.67
2022-09-15T01:03:53.252Z,99232.58
2022-09-15T01:06:42.891Z,99227.08
2022-09-15T01:09:17.268Z,99230.59
2022-09-15T01:11:44.842Z,99223.73
2022-09-15T01:14:11.586Z,99218.52
2022-09-15T01:16:47.918Z,99222.57
2022-09-15T01:19:37.312Z,99218.77
2022-09-15T01:22:16.308Z,99220.30
2022-09-15T01:25:01.755Z,99209.52
2022-09-15T01:27:47.595Z,99207.52
2022-09-15T01:30:20.384Z,99201.82
2022-09-15T01:33:13.386Z,99197.02
2022-09-15T01:35:49.300Z,99191.27
2022-09-15T01:38:21.299Z,99189.61
2022-09-15T01:40:58.650Z,99190.39
2022-09-15T01:43:25.354Z,99192.36
2022-09-15T01:45:52.089Z,99189.88
2022-09-15T01:48:20.992Z,99190.52
2022-09-15T01:50:49.452Z,99183.73
2022-09-15T01:53:18.027Z,99177.73
2022-09-15T01:55:49.241Z,99171.64
2022-09-15T01:58:16.277Z,99165.95
2022-09-15T02:00:45.996Z,99168.02
2022-09-15T02:03:27.603Z,99168.75
2022-09-15T02:06:02.819Z,99170.17
2022-09-15T02:08:36.949Z,99167.77
2022-09-15T02:11:12.903Z,99169.73
2022-09-15T02:13:56.706Z,99172.06
2022-09-15T02:16:24.188Z,99172.20
2022-09-15T02:19:03.233Z,99169.10
2022-09-15T02:21:53.964Z,99173.29
2022-09-15T02:24:30.174Z,99169.88
2022-09-15T02:26:56.882Z,99173.86
2022-09-15T02:29:23.876Z,99171.03
2022-09-15T02:31:52.409Z,99173.23
2022-09-15T02:34:26.068Z,99170.19
2022-09-15T02:36:53.208Z,99167.96
2022-09-15T02:39:21.765Z,99168.22
2022-09-15T02:41:49.064Z,99165.34
2022-09-15T02:44:15.932Z,99164.03
2022-09-15T02:46:43.727Z,99167.39
2022-09-15T02:49:10.555Z,99165.34
2022-09-15T02:51:37.214Z,99160.07
2022-09-15T02:54:03.922Z,99162.02
2022-09-15T02:56:30.554Z,99158.52
2022-09-15T02:58:57.159Z,99155.75
2022-09-15T03:01:30.141Z,99148.55
2022-09-15T03:03:56.816Z,99136.46
2022-09-15T03:06:24.324Z,99132.38
2022-09-15T03:08:58.564Z,99131.65
2022-09-15T03:11:26.816Z,99131.33
2022-09-15T03:13:54.739Z,99129.09
2022-09-15T03:16:21.548Z,99126.81
2022-09-15T03:18:48.460Z,99124.09
2022-09-15T03:21:15.793Z,99118.68
2022-09-15T03:23:42.659Z,99113.34
2022-09-15T03:26:09.565Z,99111.42
2022-09-15T03:28:36.994Z,99109.65
2022-09-15T03:31:04.115Z,99108.46
2022-09-15T03:33:31.103Z,99109.16
2022-09-15T03:35:57.803Z,99102.83
2022-09-15T03:38:24.851Z,99100.52
2022-09-15T03:40:58.292Z,99092.81
2022-09-15T03:43:25.688Z,99088.40
2022-09-15T03:45:52.502Z,99089.89
2022-09-15T03:48:19.291Z,99085.02
2022-09-15T03:50:45.979Z,99085.35
2022-09-15T03:53:12.664Z,99085.16
2022-09-15T03:55:39.304Z,99086.70
2022-09-15T03:58:05.951Z,99096.64
2022-09-15T04:00:32.733Z,99100.91
2022-09-15T04:02:59.528Z,99106.85
2022-09-15T04:05:26.257Z,99115.39
2022-09-15T04:07:52.917Z,99125.56
2022-09-15T04:10:19.645Z,99133.83
2022-09-15T04:12:46.642Z,99132.80
2022-09-15T04:15:13.276Z,99130.20
2022-09-15T04:17:40.054Z,99128.71
2022-09-15T04:20:07.528Z,99133.15
2022-09-15T04:22:34.209Z,99132.60
2022-09-15T04:25:00.864Z,99142.61
2022-09-15T04:27:28.089Z,99143.94
2022-09-15T04:29:54.831Z,99131.55
2022-09-15T04:32:22.040Z,99124.45
2022-09-15T04:34:48.696Z,99122.93
2022-09-15T04:37:15.328Z,99124.48
2022-09-15T04:39:42.456Z,99121.50
2022-09-15T04:42:09.089Z,99112.95
2022-09-15T04:44:35.921Z,99111.11
2022-09-15T04:47:02.740Z,99101.19
2022-09-15T04:49:29.439Z,99097.20
2022-09-15T04:51:56.441Z,99090.01
2022-09-15T04:54:23.503Z,99086.45
2022-09-15T04:56:52.058Z,99081.31
2022-09-15T04:59:18.977Z,99075.42
2022-09-15T05:01:45.898Z,99083.76
2022-09-15T05:04:12.693Z,99091.77
2022-09-15T05:06:39.473Z,99086.14
2022-09-15T05:09:10.423Z,99076.40
2022-09-15T05:11:38.483Z,99074.23
2022-09-15T05:14:05.332Z,99068.76
2022-09-15T05:16:32.318Z,99069.63
2022-09-15T05:19:00.174Z,99064.89
2022-09-15T05:21:27.280Z,99066.76
2022-09-15T05:59:20.096Z,99074.48
2022-09-15T06:01:46.841Z,99070.84
2022-09-15T06:04:13.545Z,99073.58
2022-09-15T06:06:40.500Z,99078.70
2022-09-15T06:09:07.798Z,99079.82
2022-09-15T06:11:34.700Z,99076.46
2022-09-15T06:14:03.156Z,99072.51
2022-09-15T06:16:32.181Z,99076.91
2022-09-15T06:18:59.031Z,99071.01
2022-09-15T06:21:27.996Z,99070.15
2022-09-15T06:23:55.830Z,99081.04
2022-09-15T06:26:22.645Z,99083.80
2022-09-15T06:28:56.645Z,99085.85
2022-09-15T06:31:23.869Z,99082.21
2022-09-15T06:33:51.881Z,99087.11
2022-09-15T06:36:19.316Z,99088.25
2022-09-15T06:38:46.066Z,99086.66
2022-09-15T06:41:12.944Z,99076.09
2022-09-15T06:43:39.573Z,99072.42
2022-09-15T06:46:10.806Z,99076.15
2022-09-15T06:48:37.813Z,99078.09
2022-09-15T06:51:04.877Z,99074.01
2022-09-15T06:53:32.101Z,99075.16
2022-09-15T06:56:09.449Z,99073.80
2022-09-15T06:58:36.692Z,99075.30
2022-09-15T07:01:09.849Z,99076.55
2022-09-15T07:03:37.490Z,99075.33
2022-09-15T07:06:04.656Z,99070.03
2022-09-15T07:08:31.449Z,99062.58
2022-09-15T07:10:58.257Z,99058.59
2022-09-15T07:13:25.104Z,99060.04
2022-09-15T07:15:57.415Z,99058.73
2022-09-15T07:18:24.487Z,99057.17
2022-09-15T07:20:51.352Z,99057.23
2022-09-15T07:23:18.704Z,99056.01
2022-09-15T07:25:45.658Z,99059.84
2022-09-15T07:28:12.685Z,99057.27
2022-09-15T07:30:39.540Z,99051.95
2022-09-15T07:33:07.272Z,99053.45
2022-09-15T07:35:34.002Z,99057.74
2022-09-15T07:38:00.775Z,99052.23
2022-09-15T07:40:28.219Z,99044.90
2022-09-15T07:42:55.017Z,99047.21
2022-09-15T07:45:21.817Z,99042.02
2022-09-15T07:47:48.853Z,99041.11
2022-09-15T07:50:15.508Z,99035.71
2022-09-15T07:52:42.224Z,99040.89
2022-09-15T07:55:09.574Z,99039.19
2022-09-15T07:57:36.278Z,99036.66
2022-09-15T08:00:04.026Z,99041.06
2022-09-15T08:02:38.676Z,99035.04
2022-09-15T08:05:05.829Z,99035.98
2022-09-15T08:07:32.538Z,99035.63
2022-09-15T08:09:59.228Z,99036.19
2022-09-15T08:12:25.970Z,99034.27
2022-09-15T08:14:52.618Z,99031.13
2022-09-15T08:17:19.340Z,99028.46
2022-09-15T08:19:45.975Z,99025.56
2022-09-15T08:22:12.596Z,99025.00
2022-09-15T08:24:39.304Z,99024.79
2022-09-15T08:27:05.981Z,99022.69
2022-09-15T08:29:32.824Z,99021.22
2022-09-15T08:31:59.533Z,99017.84
2022-09-15T08:34:26.235Z,99016.90
2022-09-15T08:36:52.969Z,99014.86
2022-09-15T08:39:19.682Z,99015.33
2022-09-15T08:41:50.928Z,99013.77
2022-09-15T08:44:42.031Z,99018.05
2022-09-15T08:47:13.689Z,99012.35
2022-09-15T08:49:52.080Z,99012.56
2022-09-15T08:52:30.471Z,99006.13
2022-09-15T08:54:57.830Z,99000.20
2022-09-15T08:57:25.872Z,99004.55
2022-09-15T08:59:54.484Z,99002.16
2022-09-15T09:02:40.118Z,99003.33
2022-09-15T09:05:29.605Z,99004.66
2022-09-15T09:07:59.897Z,99000.21
2022-09-15T09:11:05.798Z,98995.04
2022-09-15T09:13:47.333Z,98989.58
2022-09-15T09:16:30.319Z,98988.30
2022-09-15T09:19:03.827Z,98990.19
2022-09-15T09:21:31.893Z,98995.93
2022-09-15T09:24:05.444Z,98990.75
2022-09-15T09:26:34.783Z,98989.66
2022-09-15T09:29:04.468Z,98992.73
2022-09-15T09:31:31.227Z,98989.48
2022-09-15T09:34:26.474Z,98989.71
2022-09-15T09:37:14.544Z,98995.04
2022-09-15T09:39:41.430Z,98988.85
2022-09-15T09:42:13.924Z,98987.17
2022-09-15T09:44:40.825Z,98989.20
2022-09-15T09:47:07.754Z,98987.72
2022-09-15T09:49:35.036Z,98991.06
2022-09-15T09:52:03.581Z,98991.95
2022-09-15T09:54:39.590Z,98996.17
2022-09-15T09:57:23.162Z,98994.89
2022-09-15T09:59:50.719Z,98990.58
2022-09-15T10:02:21.229Z,98987.35
2022-09-15T10:05:13.107Z,98993.02
2022-09-15T10:07:45.836Z,98994.77
2022-09-15T10:10:21.114Z,98999.79
2022-09-15T10:12:47.785Z,98997.83
2022-09-15T10:15:24.845Z,99000.04
2022-09-15T10:17:51.630Z,98998.23
2022-09-15T10:20:24.981Z,98997.50
2022-09-15T10:22:51.777Z,99000.65
2022-09-15T10:25:21.513Z,99000.43
2022-09-15T10:28:14.429Z,99004.71
2022-09-15T10:31:38.297Z,99006.31
2022-09-15T10:34:31.310Z,99000.62
2022-09-15T10:37:08.903Z,98995.09
2022-09-15T10:39:48.283Z,98986.62
2022-09-15T10:42:44.342Z,98983.41
2022-09-15T10:45:37.644Z,98976.58
2022-09-15T10:48:32.391Z,98976.64
2022-09-15T10:51:01.346Z,98969.63
2022-09-15T10:54:05.886Z,98970.64
2022-09-15T10:56:35.255Z,98965.57
2022-09-15T10:59:20.626Z,98969.52
2022-09-15T11:01:54.674Z,98973.21
2022-09-15T11:04:42.740Z,98974.33
2022-09-15T11:07:47.833Z,98974.40
2022-09-15T11:10:39.763Z,98964.89
2022-09-15T11:13:19.668Z,98960.13
2022-09-15T11:16:38.871Z,98957.38
2022-09-15T11:19:05.540Z,98957.03
2022-09-15T11:21:38.379Z,98961.39
2022-09-15T11:24:23.505Z,98956.23
2022-09-15T11:27:19.425Z,98951.35
2022-09-15T11:30:18.432Z,98942.80
2022-09-15T11:32:55.606Z,98944.54
2022-09-15T11:35:37.947Z,98940.25
2022-09-15T11:38:43.113Z,98940.56
2022-09-15T11:41:31.180Z,98940.92
2022-09-15T11:44:16.785Z,98941.21
2022-09-15T11:47:21.460Z,98938.85
2022-09-15T11:49:56.330Z,98932.38
2022-09-15T11:52:55.855Z,98927.79
2022-09-15T11:55:44.502Z,98930.96
2022-09-15T11:58:29.053Z,98931.67
2022-09-15T12:01:23.935Z,98922.79
2022-09-15T12:03:57.959Z,98922.16
2022-09-15T12:06:47.870Z,98925.45
2022-09-15T12:09:16.491Z,98929.18
2022-09-15T12:11:47.738Z,98929.64
2022-09-15T12:14:17.122Z,98932.94
2022-09-15T12:16:43.875Z,98933.67
2022-09-15T12:19:33.404Z,98934.17
2022-09-15T12:22:15.074Z,98927.23
2022-09-15T12:24:45.973Z,98926.70
2022-09-15T12:27:17.020Z,98921.94
2022-09-15T12:30:00.365Z,98920.40
2022-09-15T12:32:31.060Z,98924.00
2022-09-15T12:35:16.167Z,98924.95
2022-09-15T12:37:46.912Z,98927.99
2022-09-15T12:40:34.918Z,98926.42
2022-09-15T12:43:23.048Z,98929.15
2022-09-15T12:45:55.105Z,98930.59
2022-09-15T12:48:27.645Z,98926.23
2022-09-15T12:51:02.352Z,98930.21
2022-09-15T12:53:30.799Z,98927.27
2022-09-15T12:55:59.489Z,98930.03
2022-09-15T12:58:47.724Z,98925.05
2022-09-15T13:01:23.786Z,98926.99
2022-09-15T13:03:50.853Z,98924.27
2022-09-15T13:06:21.514Z,98925.09
2022-09-15T13:08:49.856Z,98919.82
2022-09-15T13:11:37.535Z,98925.00
2022-09-15T13:14:04.534Z,98928.23
2022-09-15T13:17:01.251Z,98927.98
2022-09-15T13:19:36.009Z,98924.67
2022-09-15T13:22:11.969Z,98920.13
2022-09-15T13:24:45.018Z,98922.54
2022-09-15T13:27:12.287Z,98916.90
2022-09-15T13:29:47.287Z,98913.02
2022-09-15T13:32:22.059Z,98912.66
2022-09-15T13:35:08.935Z,98907.90
2022-09-15T13:38:15.118Z,98910.11
2022-09-15T13:41:25.097Z,98909.31
2022-09-15T13:44:10.273Z,98906.83
2022-09-15T13:47:04.022Z,98903.20
2022-09-15T13:49:47.006Z,98899.09
2022-09-15T13:52:19.504Z,98895.27
2022-09-15T13:55:18.599Z,98887.09
2022-09-15T14:00:55.281Z,98872.09
2022-09-15T14:03:44.017Z,98869.40
2022-09-15T14:06:22.724Z,98873.39
2022-09-15T14:08:51.856Z,98872.70
2022-09-15T14:11:22.793Z,98865.97
2022-09-15T14:13:49.552Z,98861.90
2022-09-15T14:16:23.824Z,98857.48
2022-09-15T14:18:51.279Z,98860.15
2022-09-15T14:21:19.567Z,98862.83
2022-09-15T14:23:51.149Z,98867.30
2022-09-15T14:26:20.162Z,98864.86
2022-09-15T14:28:52.177Z,98865.29
2022-09-15T14:31:30.223Z,98863.11
2022-09-15T14:33:56.948Z,98859.27
2022-09-15T14:36:31.884Z,98854.83
2022-09-15T14:39:16.892Z,98855.50
2022-09-15T14:41:43.781Z,98857.35
2022-09-15T14:47:26.274Z,98848.96
2022-09-15T14:50:17.657Z,98851.98
2022-09-15T14:52:45.356Z,98858.32
2022-09-15T14:55:19.016Z,98862.15
2022-09-15T14:57:50.733Z,98858.30
2022-09-15T15:00:20.368Z,98860.01
2022-09-15T15:02:52.423Z,98853.55
2022-09-15T15:05:25.464Z,98848.63
2022-09-15T15:07:52.205Z,98844.45
2022-09-15T15:10:24.516Z,98839.59
2022-09-15T15:12:53.770Z,98838.61
2022-09-15T15:15:20.505Z,98834.48
2022-09-15T15:17:49.786Z,98836.23
2022-09-15T15:20:30.382Z,98841.72
2022-09-15T15:23:24.110Z,98836.77
2022-09-15T15:25:51.240Z,98832.70
2022-09-15T15:28:34.224Z,98835.61
2022-09-15T15:31:18.339Z,98829.75
2022-09-15T15:33:46.783Z,98820.90
2022-09-15T15:36:13.825Z,98825.07
2022-09-15T15:38:47.130Z,98827.31
2022-09-15T15:41:25.540Z,98825.77
2022-09-15T15:43:56.053Z,98823.81
2022-09-15T15:46:45.708Z,98824.00
2022-09-15T15:49:13.213Z,98821.59
2022-09-15T15:51:40.676Z,98819.56
2022-09-15T15:54:07.369Z,98825.19
2022-09-15T15:56:37.876Z,98826.02
2022-09-15T15:59:05.947Z,98823.86
2022-09-15T16:01:34.178Z,98824.80
2022-09-15T16:04:01.256Z,98819.06
2022-09-15T16:06:28.004Z,98820.26
2022-09-15T16:08:54.631Z,98815.30
2022-09-15T16:11:21.284Z,98812.50
2022-09-15T16:13:48.427Z,98807.83
2022-09-15T16:16:17.396Z,98801.11
2022-09-15T16:18:44.142Z,98798.05
2022-09-15T16:21:38.451Z,98792.20
2022-09-15T16:24:05.696Z,98797.77
2022-09-15T16:26:34.552Z,98800.05
2022-09-15T16:29:01.484Z,98795.98
2022-09-15T16:31:28.183Z,98798.36
2022-09-15T16:33:54.908Z,98791.17
2022-09-15T16:36:21.917Z,98792.98
2022-09-15T16:38:48.585Z,98789.86
2022-09-15T16:41:16.132Z,98789.90
2022-09-15T16:43:43.519Z,98792.42
2022-09-15T16:46:11.209Z,98783.42
2022-09-15T16:48:42.741Z,98783.04
2022-09-15T16:51:30.964Z,98783.70
2022-09-15T16:53:58.800Z,98783.94
2022-09-15T16:56:25.527Z,98779.63
2022-09-15T16:58:58.928Z,98779.10
2022-09-15T17:01:26.809Z,98782.89
2022-09-15T17:03:53.648Z,98787.03
2022-09-15T17:06:22.160Z,98777.88
2022-09-15T17:08:48.977Z,98785.23
2022-09-15T17:11:17.600Z,98781.78
2022-09-15T17:13:44.435Z,98774.77
2022-09-15T17:16:12.214Z,98770.05
2022-09-15T17:18:38.864Z,98772.41
2022-09-15T17:21:05.631Z,98770.55
2022-09-15T17:23:37.032Z,98768.02
2022-09-15T17:26:10.670Z,98767.73
2022-09-15T17:28:37.623Z,98771.25
2022-09-15T17:31:21.533Z,98768.89
2022-09-15T17:33:48.526Z,98767.52
2022-09-15T17:36:15.785Z,98770.82
2022-09-15T17:38:42.590Z,98772.35
2022-09-15T17:41:16.493Z,98771.48
2022-09-15T17:43:43.248Z,98766.02
2022-09-15T17:46:10.121Z,98762.88
2022-09-15T17:48:38.634Z,98763.76
2022-09-15T17:51:06.385Z,98765.50
2022-09-15T17:53:33.027Z,98760.13
2022-09-15T17:55:59.720Z,98768.05
2022-09-15T17:58:26.871Z,98762.71
2022-09-15T18:00:53.529Z,98764.46
2022-09-15T18:03:28.123Z,98767.29
2022-09-15T18:05:56.055Z,98761.64
2022-09-15T18:08:22.721Z,98756.02
2022-09-15T18:10:49.385Z,98756.47
2022-09-15T18:13:21.045Z,98752.47
2022-09-15T18:17:37.804Z,98748.10
2022-09-15T18:20:04.795Z,98743.48
2022-09-15T18:22:32.335Z,98741.31
2022-09-15T18:24:58.801Z,98742.66
2022-09-15T18:27:25.272Z,98738.34
2022-09-15T18:29:51.760Z,98741.11
2022-09-15T18:32:18.176Z,98741.27
2022-09-15T18:34:46.831Z,98738.79
2022-09-15T18:37:13.252Z,98740.20
2022-09-15T18:39:40.320Z,98740.98
2022-09-15T18:42:07.402Z,98741.02
2022-09-15T18:44:34.487Z,98738.98
2022-09-15T18:47:00.968Z,98735.17
2022-09-15T18:49:27.773Z,98738.12
2022-09-15T18:51:54.234Z,98730.50
2022-09-15T18:54:20.608Z,98728.89
2022-09-15T18:56:57.798Z,98728.74
2022-09-15T18:59:25.464Z,98728.34
2022-09-15T19:01:51.965Z,98727.11
2022-09-15T19:04:18.736Z,98730.36
2022-09-15T19:06:45.395Z,98733.58
2022-09-15T19:09:11.879Z,98730.23
2022-09-15T19:11:39.581Z,98728.77
2022-09-15T19:14:07.033Z,98731.67
2022-09-15T19:16:53.894Z,98730.38
2022-09-15T19:19:20.363Z,98727.44
2022-09-15T19:21:47.080Z,98726.09
2022-09-15T19:24:15.333Z,98725.05
2022-09-15T19:26:43.293Z,98722.70
2022-09-15T19:29:10.375Z,98721.64
2022-09-15T19:31:41.688Z,98718.63
2022-09-15T19:34:08.536Z,98719.23
2022-09-15T19:36:35.088Z,98714.68
2022-09-15T19:39:02.947Z,98714.00
2022-09-15T19:41:29.620Z,98712.10
2022-09-15T19:43:56.416Z,98711.27
2022-09-15T19:46:24.071Z,98714.20
2022-09-15T19:48:51.362Z,98716.99
2022-09-15T19:51:18.552Z,98715.27
2022-09-15T19:53:45.368Z,98717.61
2022-09-15T19:56:13.735Z,98719.79
2022-09-15T19:58:40.263Z,98723.60
2022-09-15T20:01:06.926Z,98724.58
2022-09-15T20:03:33.529Z,98727.91
2022-09-15T20:06:00.029Z,98725.69
2022-09-15T20:08:26.614Z,98726.31
2022-09-15T20:10:53.261Z,98729.64
2022-09-15T20:13:20.035Z,98724.33
2022-09-15T20:15:57.285Z,98723.94
2022-09-15T20:18:24.288Z,98725.50
2022-09-15T20:20:50.733Z,98722.52
2022-09-15T20:23:17.390Z,98720.73
2022-09-15T20:25:55.369Z,98717.34
2022-09-15T20:28:21.961Z,98716.31
2022-09-15T20:30:58.244Z,98721.90
2022-09-15T20:33:25.668Z,98719.95
2022-09-15T20:35:52.480Z,98718.31
2022-09-15T20:38:19.929Z,98717.01
2022-09-15T20:40:46.316Z,98719.80
2022-09-15T20:43:12.782Z,98717.57
2022-09-15T20:45:39.190Z,98720.17
2022-09-15T20:48:05.799Z,98718.48
2022-09-15T20:50:32.335Z,98715.70
2022-09-15T20:52:58.809Z,98714.11
2022-09-15T20:55:25.256Z,98720.38
2022-09-15T20:57:51.768Z,98725.47
2022-09-15T21:00:18.151Z,98732.11
2022-09-15T21:02:44.708Z,98728.65
2022-09-15T21:05:11.836Z,98725.27
2022-09-15T21:07:38.317Z,98712.75
2022-09-15T21:10:06.027Z,98714.17
2022-09-15T21:12:33.313Z,98711.04
2022-09-15T21:15:00.648Z,98714.66
2022-09-15T21:17:28.365Z,98710.98
2022-09-15T21:19:55.060Z,98718.70
2022-09-15T21:22:21.500Z,98712.53
2022-09-15T21:24:47.983Z,98714.56
2022-09-15T21:27:26.495Z,98720.94
2022-09-15T21:29:53.616Z,98726.70
2022-09-15T21:32:20.413Z,98730.16
2022-09-15T21:34:47.561Z,98735.17
2022-09-15T21:37:14.136Z,98745.45
2022-09-15T21:39:40.626Z,98752.58
2022-09-15T21:42:07.069Z,98755.59
2022-09-15T21:44:34.072Z,98758.45
2022-09-15T21:47:00.708Z,98761.95
2022-09-15T21:49:27.205Z,98765.31
2022-09-15T21:51:53.715Z,98768.05
2022-09-15T21:54:20.373Z,98767.55
2022-09-15T21:56:47.226Z,98767.70
2022-09-15T21:59:13.612Z,98759.55
2022-09-15T22:01:40.881Z,98760.33
2022-09-15T22:04:07.690Z,98765.55
2022-09-15T22:06:35.893Z,98762.08
2022-09-15T22:09:07.436Z,98764.64
2022-09-15T22:11:35.627Z,98770.55
2022-09-15T22:14:02.778Z,98772.67
2022-09-15T22:16:30.003Z,98779.27
2022-09-15T22:18:56.859Z,98774.19
2022-09-15T22:21:27.500Z,98772.05
2022-09-15T22:23:55.310Z,98769.14
2022-09-15T22:26:24.979Z,98763.39
2022-09-15T22:28:51.621Z,98761.23
2022-09-15T22:31:19.076Z,98758.38
2022-09-15T22:33:45.992Z,98757.56
2022-09-15T22:36:17.002Z,98755.14
2022-09-15T22:38:43.593Z,98756.16
2022-09-15T22:41:12.361Z,98757.58
2022-09-15T22:43:40.377Z,98760.56
2022-09-15T22:46:07.187Z,98756.88
2022-09-15T22:48:37.554Z,98763.02
2022-09-15T22:51:07.753Z,98770.59
2022-09-15T22:53:34.727Z,98773.98
2022-09-15T22:56:13.837Z,98769.28
2022-09-15T22:58:42.222Z,98771.30
2022-09-15T23:01:11.546Z,98781.89
2022-09-15T23:03:38.804Z,98779.52
2022-09-15T23:06:05.676Z,98779.81
2022-09-15T23:08:33.056Z,98777.53
2022-09-15T23:11:04.161Z,98794.89
2022-09-15T23:13:30.770Z,98809.35
2022-09-15T23:15:57.420Z,98806.10
2022-09-15T23:18:24.094Z,98809.94
2022-09-15T23:21:01.900Z,98814.73
2022-09-15T23:23:28.820Z,98811.10
2022-09-15T23:25:55.356Z,98809.48
2022-09-15T23:28:21.870Z,98814.42
2022-09-15T23:30:52.388Z,98816.92
2022-09-15T23:33:18.957Z,98819.51
2022-09-15T23:35:45.913Z,98815.42
2022-09-15T23:38:12.629Z,98818.04
2022-09-15T23:40:42.478Z,98826.50
2022-09-15T23:43:09.713Z,98830.61
2022-09-15T23:45:49.946Z,98828.08
2022-09-15T23:48:28.250Z,98826.05
2022-09-15T23:50:54.786Z,98834.77
2022-09-15T23:53:21.186Z,98836.94
2022-09-15T23:55:47.714Z,98836.52
2022-09-15T23:58:15.002Z,98833.93
